Aho, North Carolina
Current Conditions -  °F | °C
As of 11:35 AM on Saturday 25 Oct 2014 (Local Time) from KTNB Reporting Station
Clear Clear  
Wind Chill: 14°   Ceiling: Unl
Heat Index: 14°   Visibility: 10mi
Dew Point: -4°   Wind: 14mph
Humidity: 30%   Direction: 280°W
Pressure: 30.08"   Gusts: NA
Location:  36.0473°N, 81.8148°W
Report Text: KTNB 251535Z AUTO 28012KT 10SM CLR 14/M03 A3008 RMK AO2 T01411035
Loading
Personal Weather Stations






























Interactive Weather Map
Tropical Storm Tracking
New forecast layout! Learn more

10-Day Weather Forecast

Advertisements
Track Severe Weather on mobile